Monday, February 18, 2019, 5:54 AM EST
Back to Local

KTEB, Teterboro Airport

Location: South Hackensack, NJ, United States Lat: 40.867
Local Time: 5:54 AM EST (10:54 GMT) Lon: -74.05
Time Zone: US/Eastern Elev: 9 ft

Show me the last for .
Show Decoded

2019-02-18 04:51 METAR KTEB 180951Z 08012KT 2 1/2SM -DZ BR OVC005 01/00 A2981 RMK AO2
                 RAB0857E0858UPB0858E0859DZB47 SLP093 P0002 T00110000 $ =
2019-02-18 03:51 METAR KTEB 180851Z COR 080/03KT 2 1/2SM BR OVC006 01/00 A2985 RMK AO2 RAE45
                 SLP107 P0000 60002 T00060000 56027 $ =
2019-02-18 02:51 METAR KTEB 180751Z 05007KT 2SM RA BR OVC005 01/00 A2987 RMK AO2
                 UPB0653E0654B30E46RAB0656E30B46 SLP114 P0002 T00060000 $ =
2019-02-18 01:51 METAR KTEB 180651Z 08004KT 2 1/2SM BR OVC008 01/M01 A2990 RMK AO2 RAE21UPB10E19
                 CIG 005V010 SLP126 P0000 T00061006 $ =
2019-02-18 01:30 METAR KTEB 180630Z 09011G15KT 4SM BR OVC005 01/M01 A2990 RMK AO2 RAE21UPB10E19
                 P0000 T00061006 $ =
2019-02-18 00:51 METAR KTEB 180551Z 07008KT 6SM -RA BR FEW007 BKN011 OVC023 01/00 A2993 RMK AO2
                 UPB08E10DZB42E46 SLP134 P0002 60007 T00060000 10017 20006 56023 $ =
2019-02-17 23:51 METAR KTEB 180451Z 04003KT 2 1/2SM -RA BR BKN014 OVC019 01/M01 A2996 RMK AO2
                 SLP143 P0003 T00111006 400281039 $ =
2019-02-17 23:48 METAR KTEB 180448Z 36003KT 2 1/2SM RA BR OVC014 01/M01 A2996 RMK AO2 P0002 $ =
2019-02-17 22:51 METAR KTEB 180351Z 00000KT 8SM -RA BKN021 OVC028 01/M02 A2995 RMK AO2 PRESFR
                 SLP141 P0001 T00111017 $ =
2019-02-17 21:51 METAR KTEB 180251Z 00000KT 10SM -RA SCT028 OVC050 01/M02 A3000 RMK AO2
                 DZE18RAB18E22B49PLB22E49 SLP157 P0001 60001 T00111022 55016 $ =
2019-02-17 21:28 METAR KTEB 180228Z VRB05KT 8SM -PL BKN029 OVC050 02/M03 A3001 RMK AO2
                 DZE18RAB18E22PLB22 PRESRR P0000 T00171033 $ =
2019-02-17 20:51 METAR KTEB 180151Z 23006KT 10SM -DZ OVC055 02/M04 A2998 RMK AO2 RAB33E37DZB37
                 SLP152 P0000 T00171044 $ =
2019-02-17 19:51 METAR KTEB 180051Z 19008KT 10SM OVC060 02/M06 A3003 RMK AO2 SLP167 T00171056 $ =
2019-02-17 18:51 METAR KTEB 172351Z 19008KT 10SM OVC055 01/M06 A3004 RMK AO2 SLP172 T00111061
                 10028 20011 50002 $ =
2019-02-17 17:51 METAR KTEB 172251Z 19008KT 10SM OVC060 01/M07 A3005 RMK AO2 SLP174 T00111067 $ =
2019-02-17 16:51 METAR KTEB 172151Z 22009KT 10SM FEW065 02/M07 A3004 RMK AO2 SLP172 T00221072 $ =
2019-02-17 15:51 METAR KTEB 172051Z VRB04KT 10SM CLR 03/M09 A3003 RMK AO2 SLP170 T00281089 56044
                 $ =
2019-02-17 14:51 METAR KTEB 171951Z 18010KT 10SM CLR 03/M09 A3007 RMK AO2 SLP181 T00281089 $ =
2019-02-17 13:51 METAR KTEB 171851Z 20006G12KT 10SM CLR 03/M09 A3011 RMK AO2 SLP194 T00281094 $ =
2019-02-17 12:51 METAR KTEB 171751Z 21008G15KT 180V250 10SM CLR 02/M09 A3016 RMK AO2 SLP214
                 T00221089 10022 21039 53011 $ =
2019-02-17 11:51 METAR KTEB 171651Z COR 00000KT 10SM CLR 01/M10 A3017 RMK AO2 SLP190 T00111100 $
                 =
2019-02-17 10:51 METAR KTEB 171551Z VRB03KT 10SM CLR 00/M09 A3014 RMK AO2 SLP207 T00001094 $ =
2019-02-17 09:51 METAR KTEB 171451Z 03010G16KT 10SM CLR M01/M09 A3013 RMK AO2 WSHFT 1405 SLP203
                 T10061094 50006 $ =
2019-02-17 09:25 METAR KTEB 171425Z 03007KT 360V070 10SM CLR M01/M09 A3017 RMK AO2 WSHFT 1405
                 T10111094 $ =
2019-02-17 08:51 METAR KTEB 171351Z 35010KT 10SM CLR M02/M09 A3017 RMK AO2 SLP217 T10171094 $ =
2019-02-17 07:51 METAR KTEB 171251Z VRB06KT 10SM CLR M03/M09 A3015 RMK AO2 SLP209 T10281094 $ =
2019-02-17 06:51 METAR KTEB 171151Z 02008KT 360V070 10SM CLR M04/M10 A3011 RMK AO2 SLP196
                 T10391100 11011 21039 53008 $ =

Support USWX by starting your Amazon purchase here.